sensor_id;sensor_type;location;lat;lon;timestamp;temperature;humidity
22895;DHT22;11614;52.494;6.976;2022-10-04T00:00:41;12.30;99.90
22895;DHT22;11614;52.494;6.976;2022-10-04T00:03:11;12.30;99.90
22895;DHT22;11614;52.494;6.976;2022-10-04T00:05:51;12.30;99.90
22895;DHT22;11614;52.494;6.976;2022-10-04T00:11:07;12.30;99.90
22895;DHT22;11614;52.494;6.976;2022-10-04T00:16:04;12.30;99.90
22895;DHT22;11614;52.494;6.976;2022-10-04T00:18:39;12.20;99.90
22895;DHT22;11614;52.494;6.976;2022-10-04T00:21:07;12.40;99.90
22895;DHT22;11614;52.494;6.976;2022-10-04T00:26:08;12.30;99.90
22895;DHT22;11614;52.494;6.976;2022-10-04T00:44:17;12.20;99.90
22895;DHT22;11614;52.494;6.976;2022-10-04T00:46:47;12.00;99.90
22895;DHT22;11614;52.494;6.976;2022-10-04T00:49:16;12.00;99.90
22895;DHT22;11614;52.494;6.976;2022-10-04T00:51:56;12.10;99.90
22895;DHT22;11614;52.494;6.976;2022-10-04T00:57:03;12.10;99.90
22895;DHT22;11614;52.494;6.976;2022-10-04T01:02:19;12.20;99.90
22895;DHT22;11614;52.494;6.976;2022-10-04T01:07:13;12.10;99.90
22895;DHT22;11614;52.494;6.976;2022-10-04T01:09:47;12.10;99.90
22895;DHT22;11614;52.494;6.976;2022-10-04T01:12:25;11.80;99.90
22895;DHT22;11614;52.494;6.976;2022-10-04T01:17:22;12.40;99.90
22895;DHT22;11614;52.494;6.976;2022-10-04T01:19:52;12.10;99.90
22895;DHT22;11614;52.494;6.976;2022-10-04T01:22:35;12.10;99.90
22895;DHT22;11614;52.494;6.976;2022-10-04T01:25:01;12.10;99.90
22895;DHT22;11614;52.494;6.976;2022-10-04T01:27:40;12.10;99.90
22895;DHT22;11614;52.494;6.976;2022-10-04T01:30:13;12.10;99.90
22895;DHT22;11614;52.494;6.976;2022-10-04T01:32:39;12.10;99.90
22895;DHT22;11614;52.494;6.976;2022-10-04T01:35:10;12.10;99.90
22895;DHT22;11614;52.494;6.976;2022-10-04T01:37:37;12.10;99.90
22895;DHT22;11614;52.494;6.976;2022-10-04T01:40:05;12.30;99.90
22895;DHT22;11614;52.494;6.976;2022-10-04T01:42:38;12.20;99.90
22895;DHT22;11614;52.494;6.976;2022-10-04T01:45:21;12.20;99.90
22895;DHT22;11614;52.494;6.976;2022-10-04T01:47:54;12.20;99.90
22895;DHT22;11614;52.494;6.976;2022-10-04T01:50:33;12.20;99.90
22895;DHT22;11614;52.494;6.976;2022-10-04T01:55:42;12.20;99.90
22895;DHT22;11614;52.494;6.976;2022-10-04T01:58:25;12.20;99.90
22895;DHT22;11614;52.494;6.976;2022-10-04T02:00:57;12.10;99.90
22895;DHT22;11614;52.494;6.976;2022-10-04T02:03:32;12.10;99.90
22895;DHT22;11614;52.494;6.976;2022-10-04T02:06:01;12.10;99.90
22895;DHT22;11614;52.494;6.976;2022-10-04T02:08:31;12.20;99.90
22895;DHT22;11614;52.494;6.976;2022-10-04T02:10:59;11.90;99.90
22895;DHT22;11614;52.494;6.976;2022-10-04T02:13:27;12.20;99.90
22895;DHT22;11614;52.494;6.976;2022-10-04T02:15:58;12.20;99.90
22895;DHT22;11614;52.494;6.976;2022-10-04T02:18:24;12.20;99.90
22895;DHT22;11614;52.494;6.976;2022-10-04T02:20:52;12.20;99.90
22895;DHT22;11614;52.494;6.976;2022-10-04T02:23:20;12.20;99.90
22895;DHT22;11614;52.494;6.976;2022-10-04T02:25:47;12.20;99.90
22895;DHT22;11614;52.494;6.976;2022-10-04T02:28:13;12.20;99.90
22895;DHT22;11614;52.494;6.976;2022-10-04T02:30:58;12.20;99.90
22895;DHT22;11614;52.494;6.976;2022-10-04T02:33:45;12.10;99.90
22895;DHT22;11614;52.494;6.976;2022-10-04T02:36:12;12.10;99.90
22895;DHT22;11614;52.494;6.976;2022-10-04T02:38:54;12.10;99.90
22895;DHT22;11614;52.494;6.976;2022-10-04T02:41:25;12.10;99.90
22895;DHT22;11614;52.494;6.976;2022-10-04T02:44:16;12.10;99.90
22895;DHT22;11614;52.494;6.976;2022-10-04T02:47:05;12.10;99.90
22895;DHT22;11614;52.494;6.976;2022-10-04T02:49:47;12.10;99.90
22895;DHT22;11614;52.494;6.976;2022-10-04T02:55:30;12.10;99.90
22895;DHT22;11614;52.494;6.976;2022-10-04T02:57:57;12.00;99.90
22895;DHT22;11614;52.494;6.976;2022-10-04T03:00:29;12.00;99.90
22895;DHT22;11614;52.494;6.976;2022-10-04T03:06:07;12.10;99.90
22895;DHT22;11614;52.494;6.976;2022-10-04T03:09:00;11.90;99.90
22895;DHT22;11614;52.494;6.976;2022-10-04T03:11:29;11.80;99.90
22895;DHT22;11614;52.494;6.976;2022-10-04T03:13:58;11.80;99.90
22895;DHT22;11614;52.494;6.976;2022-10-04T03:18:52;11.50;99.90
22895;DHT22;11614;52.494;6.976;2022-10-04T03:21:20;12.60;99.90
22895;DHT22;11614;52.494;6.976;2022-10-04T03:23:48;11.40;99.90
22895;DHT22;11614;52.494;6.976;2022-10-04T03:26:28;11.10;99.90
22895;DHT22;11614;52.494;6.976;2022-10-04T03:28:57;11.20;99.90
22895;DHT22;11614;52.494;6.976;2022-10-04T03:31:24;11.10;99.90
22895;DHT22;11614;52.494;6.976;2022-10-04T03:33:51;11.10;99.90
22895;DHT22;11614;52.494;6.976;2022-10-04T03:38:46;10.80;99.90
22895;DHT22;11614;52.494;6.976;2022-10-04T03:41:13;10.80;99.90
22895;DHT22;11614;52.494;6.976;2022-10-04T03:43:47;10.80;99.90
22895;DHT22;11614;52.494;6.976;2022-10-04T03:46:16;10.80;99.90
22895;DHT22;11614;52.494;6.976;2022-10-04T03:48:46;10.70;99.90
22895;DHT22;11614;52.494;6.976;2022-10-04T03:51:25;10.70;99.90
22895;DHT22;11614;52.494;6.976;2022-10-04T03:53:53;10.70;99.90
22895;DHT22;11614;52.494;6.976;2022-10-04T03:56:30;10.60;99.90
22895;DHT22;11614;52.494;6.976;2022-10-04T03:58:57;10.80;99.90
22895;DHT22;11614;52.494;6.976;2022-10-04T04:09:37;10.50;99.90
22895;DHT22;11614;52.494;6.976;2022-10-04T04:12:19;10.50;99.90
22895;DHT22;11614;52.494;6.976;2022-10-04T04:14:49;10.40;99.90
22895;DHT22;11614;52.494;6.976;2022-10-04T04:17:28;10.40;99.90
22895;DHT22;11614;52.494;6.976;2022-10-04T04:19:57;10.60;99.90
22895;DHT22;11614;52.494;6.976;2022-10-04T04:22:24;10.30;99.90
22895;DHT22;11614;52.494;6.976;2022-10-04T04:25:03;10.20;99.90
22895;DHT22;11614;52.494;6.976;2022-10-04T04:27:34;10.20;99.90
22895;DHT22;11614;52.494;6.976;2022-10-04T04:30:03;10.20;99.90
22895;DHT22;11614;52.494;6.976;2022-10-04T04:32:35;10.20;99.90
22895;DHT22;11614;52.494;6.976;2022-10-04T04:35:04;10.20;99.90
22895;DHT22;11614;52.494;6.976;2022-10-04T04:37:35;10.10;99.90
22895;DHT22;11614;52.494;6.976;2022-10-04T04:40:21;10.00;99.90
22895;DHT22;11614;52.494;6.976;2022-10-04T04:42:48;10.10;99.90
22895;DHT22;11614;52.494;6.976;2022-10-04T04:45:21;11.40;99.90
22895;DHT22;11614;52.494;6.976;2022-10-04T04:47:54;9.90;99.90
22895;DHT22;11614;52.494;6.976;2022-10-04T04:50:30;10.00;99.90
22895;DHT22;11614;52.494;6.976;2022-10-04T04:53:13;9.70;99.90
22895;DHT22;11614;52.494;6.976;2022-10-04T04:55:42;9.80;99.90
22895;DHT22;11614;52.494;6.976;2022-10-04T04:58:16;10.00;99.90
22895;DHT22;11614;52.494;6.976;2022-10-04T05:00:57;10.00;99.90
22895;DHT22;11614;52.494;6.976;2022-10-04T05:05:50;9.50;99.90
22895;DHT22;11614;52.494;6.976;2022-10-04T05:08:27;9.80;99.90
22895;DHT22;11614;52.494;6.976;2022-10-04T05:11:04;9.70;99.90
22895;DHT22;11614;52.494;6.976;2022-10-04T05:13:41;9.80;99.90
22895;DHT22;11614;52.494;6.976;2022-10-04T05:16:19;9.90;99.90
22895;DHT22;11614;52.494;6.976;2022-10-04T05:18:47;9.90;99.90
22895;DHT22;11614;52.494;6.976;2022-10-04T05:26:12;9.80;99.90
22895;DHT22;11614;52.494;6.976;2022-10-04T05:28:39;9.70;99.90
22895;DHT22;11614;52.494;6.976;2022-10-04T05:31:33;9.80;99.90
22895;DHT22;11614;52.494;6.976;2022-10-04T05:34:16;10.20;99.90
22895;DHT22;11614;52.494;6.976;2022-10-04T05:39:24;9.80;99.90
22895;DHT22;11614;52.494;6.976;2022-10-04T05:42:15;9.70;99.90
22895;DHT22;11614;52.494;6.976;2022-10-04T05:44:50;9.70;99.90
22895;DHT22;11614;52.494;6.976;2022-10-04T05:47:18;9.80;99.90
22895;DHT22;11614;52.494;6.976;2022-10-04T05:49:53;9.80;99.90
22895;DHT22;11614;52.494;6.976;2022-10-04T05:52:37;10.00;99.90
22895;DHT22;11614;52.494;6.976;2022-10-04T05:55:14;9.90;99.90
22895;DHT22;11614;52.494;6.976;2022-10-04T06:05:53;9.90;99.90
22895;DHT22;11614;52.494;6.976;2022-10-04T06:22:18;10.40;99.90
22895;DHT22;11614;52.494;6.976;2022-10-04T06:25:05;10.40;99.90
22895;DHT22;11614;52.494;6.976;2022-10-04T06:27:40;10.50;99.90
22895;DHT22;11614;52.494;6.976;2022-10-04T06:30:14;10.60;99.90
22895;DHT22;11614;52.494;6.976;2022-10-04T06:35:54;10.70;99.90
22895;DHT22;11614;52.494;6.976;2022-10-04T06:46:39;11.50;99.90
22895;DHT22;11614;52.494;6.976;2022-10-04T07:00:25;13.10;99.90
22895;DHT22;11614;52.494;6.976;2022-10-04T07:05:41;14.80;99.90
22895;DHT22;11614;52.494;6.976;2022-10-04T07:08:17;15.20;99.90
22895;DHT22;11614;52.494;6.976;2022-10-04T07:10:58;15.20;99.90
22895;DHT22;11614;52.494;6.976;2022-10-04T19:09:53;13.90;99.90
22895;DHT22;11614;52.494;6.976;2022-10-04T19:12:28;13.90;99.90
22895;DHT22;11614;52.494;6.976;2022-10-04T19:15:24;13.90;99.90
22895;DHT22;11614;52.494;6.976;2022-10-04T19:21:58;14.20;99.90
22895;DHT22;11614;52.494;6.976;2022-10-04T19:24:24;14.40;99.90
22895;DHT22;11614;52.494;6.976;2022-10-04T19:27:05;14.50;99.90
22895;DHT22;11614;52.494;6.976;2022-10-04T19:40:27;14.90;99.90
22895;DHT22;11614;52.494;6.976;2022-10-04T19:46:10;15.00;99.90
22895;DHT22;11614;52.494;6.976;2022-10-04T19:48:34;15.10;99.90
22895;DHT22;11614;52.494;6.976;2022-10-04T20:11:22;15.20;99.90
22895;DHT22;11614;52.494;6.976;2022-10-04T20:21:48;15.20;99.90
22895;DHT22;11614;52.494;6.976;2022-10-04T20:54:53;15.80;99.90
22895;DHT22;11614;52.494;6.976;2022-10-04T22:09:57;16.20;99.90
22895;DHT22;11614;52.494;6.976;2022-10-04T23:31:15;15.90;99.90
22895;DHT22;11614;52.494;6.976;2022-10-04T23:33:43;15.90;99.90
